Accueil
METAR-TAF:

METAR-TAF

Aéroports :

Aéroport international de Bonriki

Tarawa, Kiribati

latitude: 01-21N, longitude: 172-55E, altitude: 2 m

Observation

Le bulletin a été fait il y a 1 heure et 7 minutes, à 13:00 UTC
Vent 7 kt de sud-est
Température 28°C
Humidité 89%
Pression 1008 hPa
Visibilité 10 km ou plus
Quelques nuages à une hauteur de 2000 ft

METAR: NGTA 121300Z 14007KT 9999 FEW020 28/26 Q1008

Heure: 04:07 (14:07 UTC)

Prévision

Le bulletin a été fait il y a 2 heures et 56 minutes, à 11:11 UTC
Prévision valable du 12 à 12 UTC au 13 à 12 UTC
Vent 6 kt de est/sud-est
Visibilité 10 km ou plus
Quelques nuages à une hauteur de 2000 ft

TAF: NGTA 121111Z 1212/1312 12006KT 9999 FEW020

Observations et prévisions météorologiques de plus de 4000 aéroports (messages METAR et TAF).

Les stations disponibles sont représentées par des disques jaunes et rouges sur la carte.

Passer la souris dessus pour voir le nom de la station.

Cliquer dessus pour voir les observations et prévisions météorologiques.

Pour changer de carte: cliquez sur les boutons verts avec une croix noire pour zoomer, sur le bouton vert avec un tiret pour effectuer un zoom arrière, ou sur les flèches vertes pour les cartes adjacentes.


METAR-TAF: